sensor_id;sensor_type;location;lat;lon;timestamp;pressure;altitude;pressure_sealevel;temperature;humidity
804;BME280;25687;49.976;8.240;2023-04-20T00:00:53;100273.94;;;4.46;100.00
804;BME280;25687;49.976;8.240;2023-04-20T00:03:18;100266.44;;;4.42;100.00
804;BME280;25687;49.976;8.240;2023-04-20T00:05:45;100261.50;;;4.35;100.00
804;BME280;25687;49.976;8.240;2023-04-20T00:08:13;100261.47;;;4.37;100.00
804;BME280;25687;49.976;8.240;2023-04-20T00:10:39;100255.09;;;4.20;100.00
804;BME280;25687;49.976;8.240;2023-04-20T00:13:05;100250.16;;;4.14;100.00
804;BME280;25687;49.976;8.240;2023-04-20T00:15:32;100252.94;;;4.05;100.00
804;BME280;25687;49.976;8.240;2023-04-20T00:17:57;100241.22;;;3.98;100.00
804;BME280;25687;49.976;8.240;2023-04-20T00:20:22;100246.63;;;3.85;100.00
804;BME280;25687;49.976;8.240;2023-04-20T00:22:48;100231.44;;;3.82;100.00
804;BME280;25687;49.976;8.240;2023-04-20T00:25:13;100227.94;;;3.86;100.00
804;BME280;25687;49.976;8.240;2023-04-20T00:27:39;100222.19;;;3.80;100.00
804;BME280;25687;49.976;8.240;2023-04-20T00:30:04;100217.88;;;3.82;100.00
804;BME280;25687;49.976;8.240;2023-04-20T00:32:30;100218.81;;;3.78;100.00
804;BME280;25687;49.976;8.240;2023-04-20T00:34:55;100215.31;;;3.82;100.00
804;BME280;25687;49.976;8.240;2023-04-20T00:37:20;100204.44;;;3.77;100.00
804;BME280;25687;49.976;8.240;2023-04-20T00:39:46;100202.88;;;3.71;100.00
804;BME280;25687;49.976;8.240;2023-04-20T00:42:11;100202.13;;;3.66;100.00
804;BME280;25687;49.976;8.240;2023-04-20T00:44:36;100195.41;;;3.65;100.00
804;BME280;25687;49.976;8.240;2023-04-20T00:47:01;100201.25;;;3.31;100.00
804;BME280;25687;49.976;8.240;2023-04-20T00:49:29;100199.31;;;3.42;100.00
804;BME280;25687;49.976;8.240;2023-04-20T00:51:58;100197.84;;;3.32;100.00
804;BME280;25687;49.976;8.240;2023-04-20T00:54:25;100195.09;;;3.41;100.00
804;BME280;25687;49.976;8.240;2023-04-20T00:56:51;100194.94;;;3.47;100.00
804;BME280;25687;49.976;8.240;2023-04-20T00:59:16;100195.81;;;3.48;100.00
804;BME280;25687;49.976;8.240;2023-04-20T01:01:41;100193.22;;;3.49;100.00
804;BME280;25687;49.976;8.240;2023-04-20T01:04:08;100177.09;;;3.50;100.00
804;BME280;25687;49.976;8.240;2023-04-20T01:06:33;100183.84;;;3.51;100.00
804;BME280;25687;49.976;8.240;2023-04-20T01:08:58;100181.22;;;3.54;100.00
804;BME280;25687;49.976;8.240;2023-04-20T01:11:24;100176.31;;;3.47;100.00
804;BME280;25687;49.976;8.240;2023-04-20T01:13:49;100181.84;;;3.28;100.00
804;BME280;25687;49.976;8.240;2023-04-20T01:16:15;100175.63;;;3.40;100.00
804;BME280;25687;49.976;8.240;2023-04-20T01:18:44;100180.69;;;3.42;100.00
804;BME280;25687;49.976;8.240;2023-04-20T01:21:11;100177.44;;;3.35;100.00
804;BME280;25687;49.976;8.240;2023-04-20T01:23:36;100173.09;;;3.38;100.00
804;BME280;25687;49.976;8.240;2023-04-20T01:26:10;100167.94;;;3.43;100.00
804;BME280;25687;49.976;8.240;2023-04-20T01:28:35;100163.69;;;3.44;100.00
804;BME280;25687;49.976;8.240;2023-04-20T01:31:02;100158.50;;;3.47;100.00
804;BME280;25687;49.976;8.240;2023-04-20T01:33:28;100159.91;;;3.60;100.00
804;BME280;25687;49.976;8.240;2023-04-20T01:35:53;100156.44;;;3.63;100.00
804;BME280;25687;49.976;8.240;2023-04-20T01:38:20;100150.59;;;3.59;100.00
804;BME280;25687;49.976;8.240;2023-04-20T01:40:46;100148.19;;;3.53;100.00
804;BME280;25687;49.976;8.240;2023-04-20T01:43:11;100155.31;;;3.38;100.00
804;BME280;25687;49.976;8.240;2023-04-20T01:45:37;100141.63;;;3.44;100.00
804;BME280;25687;49.976;8.240;2023-04-20T01:48:02;100135.72;;;3.42;100.00
804;BME280;25687;49.976;8.240;2023-04-20T01:50:28;100135.13;;;3.32;100.00
804;BME280;25687;49.976;8.240;2023-04-20T01:52:53;100136.88;;;3.30;100.00
804;BME280;25687;49.976;8.240;2023-04-20T01:55:18;100134.53;;;3.22;100.00
804;BME280;25687;49.976;8.240;2023-04-20T01:57:44;100132.13;;;3.15;100.00
804;BME280;25687;49.976;8.240;2023-04-20T02:00:11;100134.69;;;3.15;100.00
804;BME280;25687;49.976;8.240;2023-04-20T02:02:36;100135.50;;;3.17;100.00
804;BME280;25687;49.976;8.240;2023-04-20T02:05:01;100132.38;;;3.05;100.00
804;BME280;25687;49.976;8.240;2023-04-20T02:07:27;100130.88;;;2.95;100.00
804;BME280;25687;49.976;8.240;2023-04-20T02:09:52;100134.28;;;2.96;100.00
804;BME280;25687;49.976;8.240;2023-04-20T02:12:17;100134.25;;;2.97;100.00
804;BME280;25687;49.976;8.240;2023-04-20T02:14:43;100135.88;;;3.00;100.00
804;BME280;25687;49.976;8.240;2023-04-20T02:17:08;100134.19;;;2.99;100.00
804;BME280;25687;49.976;8.240;2023-04-20T02:19:34;100129.16;;;2.97;100.00
804;BME280;25687;49.976;8.240;2023-04-20T02:22:00;100128.97;;;3.05;100.00
804;BME280;25687;49.976;8.240;2023-04-20T02:24:25;100124.28;;;2.88;100.00
804;BME280;25687;49.976;8.240;2023-04-20T02:26:50;100119.31;;;2.83;100.00
804;BME280;25687;49.976;8.240;2023-04-20T02:29:16;100118.44;;;2.84;100.00
804;BME280;25687;49.976;8.240;2023-04-20T02:31:41;100112.56;;;2.82;100.00
804;BME280;25687;49.976;8.240;2023-04-20T02:34:06;100114.28;;;2.82;100.00
804;BME280;25687;49.976;8.240;2023-04-20T02:36:33;100108.34;;;2.81;100.00
804;BME280;25687;49.976;8.240;2023-04-20T02:38:59;100110.00;;;2.82;100.00
804;BME280;25687;49.976;8.240;2023-04-20T02:41:24;100106.69;;;2.79;100.00
804;BME280;25687;49.976;8.240;2023-04-20T02:43:49;100106.97;;;2.66;100.00
804;BME280;25687;49.976;8.240;2023-04-20T02:46:14;100106.09;;;2.67;100.00
804;BME280;25687;49.976;8.240;2023-04-20T02:48:40;100107.00;;;2.65;100.00
804;BME280;25687;49.976;8.240;2023-04-20T02:51:05;100117.09;;;2.68;100.00
804;BME280;25687;49.976;8.240;2023-04-20T02:53:31;100114.59;;;2.66;100.00
804;BME280;25687;49.976;8.240;2023-04-20T02:55:56;100111.91;;;2.72;100.00
804;BME280;25687;49.976;8.240;2023-04-20T02:58:21;100111.88;;;2.74;100.00
804;BME280;25687;49.976;8.240;2023-04-20T03:00:46;100108.50;;;2.73;100.00
804;BME280;25687;49.976;8.240;2023-04-20T03:03:12;100102.69;;;2.68;100.00
804;BME280;25687;49.976;8.240;2023-04-20T03:05:37;100098.56;;;2.63;100.00
804;BME280;25687;49.976;8.240;2023-04-20T03:08:02;100096.63;;;2.74;100.00
804;BME280;25687;49.976;8.240;2023-04-20T03:10:30;100095.34;;;2.94;100.00
804;BME280;25687;49.976;8.240;2023-04-20T03:12:55;100080.88;;;2.97;100.00
804;BME280;25687;49.976;8.240;2023-04-20T03:15:20;100085.47;;;3.17;100.00
804;BME280;25687;49.976;8.240;2023-04-20T03:17:46;100080.63;;;3.43;100.00
804;BME280;25687;49.976;8.240;2023-04-20T03:20:12;100082.78;;;3.58;100.00
804;BME280;25687;49.976;8.240;2023-04-20T03:22:38;100084.28;;;3.65;100.00
804;BME280;25687;49.976;8.240;2023-04-20T03:25:04;100087.53;;;3.70;100.00
804;BME280;25687;49.976;8.240;2023-04-20T03:27:30;100086.50;;;3.78;100.00
804;BME280;25687;49.976;8.240;2023-04-20T03:29:55;100083.59;;;3.92;100.00
804;BME280;25687;49.976;8.240;2023-04-20T03:32:20;100087.53;;;4.03;100.00
804;BME280;25687;49.976;8.240;2023-04-20T03:34:46;100083.25;;;4.04;100.00
804;BME280;25687;49.976;8.240;2023-04-20T03:37:11;100077.69;;;4.21;100.00
804;BME280;25687;49.976;8.240;2023-04-20T03:39:36;100080.47;;;4.12;100.00
804;BME280;25687;49.976;8.240;2023-04-20T03:42:02;100071.03;;;4.17;100.00
804;BME280;25687;49.976;8.240;2023-04-20T03:44:27;100077.88;;;4.15;100.00
804;BME280;25687;49.976;8.240;2023-04-20T03:46:53;100071.56;;;4.28;100.00
804;BME280;25687;49.976;8.240;2023-04-20T03:49:22;100074.16;;;4.25;100.00
804;BME280;25687;49.976;8.240;2023-04-20T03:51:48;100077.75;;;4.19;100.00
804;BME280;25687;49.976;8.240;2023-04-20T03:54:13;100075.63;;;4.34;100.00
804;BME280;25687;49.976;8.240;2023-04-20T03:56:39;100071.78;;;4.49;100.00
804;BME280;25687;49.976;8.240;2023-04-20T03:59:04;100067.25;;;4.59;100.00
804;BME280;25687;49.976;8.240;2023-04-20T04:01:30;100073.88;;;4.64;100.00
804;BME280;25687;49.976;8.240;2023-04-20T04:03:56;100066.84;;;4.73;100.00
804;BME280;25687;49.976;8.240;2023-04-20T04:06:21;100068.66;;;4.69;100.00
804;BME280;25687;49.976;8.240;2023-04-20T04:08:46;100066.78;;;4.74;100.00
804;BME280;25687;49.976;8.240;2023-04-20T04:11:12;100070.84;;;4.53;100.00
804;BME280;25687;49.976;8.240;2023-04-20T04:13:37;100063.44;;;4.44;100.00
804;BME280;25687;49.976;8.240;2023-04-20T04:16:02;100063.31;;;4.48;100.00
804;BME280;25687;49.976;8.240;2023-04-20T04:18:29;100062.03;;;4.63;100.00
804;BME280;25687;49.976;8.240;2023-04-20T04:20:57;100062.94;;;4.61;100.00
804;BME280;25687;49.976;8.240;2023-04-20T04:23:22;100062.16;;;4.59;100.00
804;BME280;25687;49.976;8.240;2023-04-20T04:25:47;100051.88;;;4.62;100.00
804;BME280;25687;49.976;8.240;2023-04-20T04:28:13;100051.63;;;4.69;100.00
804;BME280;25687;49.976;8.240;2023-04-20T04:30:39;100049.88;;;4.72;100.00
804;BME280;25687;49.976;8.240;2023-04-20T04:33:04;100055.66;;;4.77;100.00
804;BME280;25687;49.976;8.240;2023-04-20T04:35:30;100051.44;;;4.76;100.00
804;BME280;25687;49.976;8.240;2023-04-20T04:37:55;100057.53;;;4.72;100.00
804;BME280;25687;49.976;8.240;2023-04-20T04:40:20;100050.91;;;4.66;100.00
804;BME280;25687;49.976;8.240;2023-04-20T04:42:46;100049.19;;;4.66;100.00
804;BME280;25687;49.976;8.240;2023-04-20T04:45:12;100051.38;;;4.79;100.00
804;BME280;25687;49.976;8.240;2023-04-20T04:47:38;100059.88;;;4.78;100.00
804;BME280;25687;49.976;8.240;2023-04-20T04:50:05;100052.81;;;4.86;100.00
804;BME280;25687;49.976;8.240;2023-04-20T04:52:32;100050.47;;;4.80;100.00
804;BME280;25687;49.976;8.240;2023-04-20T04:54:57;100055.81;;;4.72;100.00
804;BME280;25687;49.976;8.240;2023-04-20T04:57:22;100060.09;;;4.72;100.00
804;BME280;25687;49.976;8.240;2023-04-20T04:59:48;100057.63;;;4.68;100.00
804;BME280;25687;49.976;8.240;2023-04-20T05:02:13;100049.47;;;4.57;100.00
804;BME280;25687;49.976;8.240;2023-04-20T05:04:38;100055.44;;;4.56;100.00
804;BME280;25687;49.976;8.240;2023-04-20T05:07:03;100057.28;;;4.51;100.00
804;BME280;25687;49.976;8.240;2023-04-20T05:09:29;100058.84;;;4.55;100.00
804;BME280;25687;49.976;8.240;2023-04-20T05:11:58;100055.31;;;4.61;100.00
804;BME280;25687;49.976;8.240;2023-04-20T05:14:25;100054.19;;;4.69;100.00
804;BME280;25687;49.976;8.240;2023-04-20T05:16:50;100059.22;;;4.73;100.00
804;BME280;25687;49.976;8.240;2023-04-20T05:19:15;100062.72;;;4.68;100.00
804;BME280;25687;49.976;8.240;2023-04-20T05:21:40;100056.84;;;4.66;100.00
804;BME280;25687;49.976;8.240;2023-04-20T05:24:06;100056.97;;;4.62;100.00
804;BME280;25687;49.976;8.240;2023-04-20T05:26:31;100060.22;;;4.67;100.00
804;BME280;25687;49.976;8.240;2023-04-20T05:28:56;100061.03;;;4.67;100.00
804;BME280;25687;49.976;8.240;2023-04-20T05:31:22;100058.84;;;4.57;100.00
804;BME280;25687;49.976;8.240;2023-04-20T05:33:47;100065.25;;;4.40;100.00
804;BME280;25687;49.976;8.240;2023-04-20T05:36:12;100060.97;;;4.42;100.00
804;BME280;25687;49.976;8.240;2023-04-20T05:38:37;100073.31;;;4.55;100.00
804;BME280;25687;49.976;8.240;2023-04-20T05:41:03;100062.22;;;4.57;100.00
804;BME280;25687;49.976;8.240;2023-04-20T05:43:28;100057.22;;;4.54;100.00
804;BME280;25687;49.976;8.240;2023-04-20T05:45:54;100064.69;;;4.60;100.00
804;BME280;25687;49.976;8.240;2023-04-20T05:48:19;100063.31;;;4.48;100.00
804;BME280;25687;49.976;8.240;2023-04-20T05:50:44;100071.38;;;4.34;100.00
804;BME280;25687;49.976;8.240;2023-04-20T05:53:10;100066.66;;;4.50;100.00
804;BME280;25687;49.976;8.240;2023-04-20T05:55:35;100064.13;;;4.49;100.00
804;BME280;25687;49.976;8.240;2023-04-20T05:58:00;100065.22;;;4.42;100.00
804;BME280;25687;49.976;8.240;2023-04-20T06:00:25;100080.34;;;4.46;100.00
804;BME280;25687;49.976;8.240;2023-04-20T06:02:51;100075.19;;;4.49;100.00
804;BME280;25687;49.976;8.240;2023-04-20T06:05:16;100077.19;;;4.68;100.00
804;BME280;25687;49.976;8.240;2023-04-20T06:07:41;100069.66;;;4.63;100.00
804;BME280;25687;49.976;8.240;2023-04-20T06:10:07;100072.00;;;4.41;100.00
804;BME280;25687;49.976;8.240;2023-04-20T06:12:32;100077.16;;;4.40;100.00
804;BME280;25687;49.976;8.240;2023-04-20T06:14:58;100070.69;;;4.28;100.00
804;BME280;25687;49.976;8.240;2023-04-20T06:17:23;100079.44;;;4.19;100.00
804;BME280;25687;49.976;8.240;2023-04-20T06:19:49;100074.78;;;4.03;100.00
804;BME280;25687;49.976;8.240;2023-04-20T06:22:14;100073.03;;;4.06;100.00
804;BME280;25687;49.976;8.240;2023-04-20T06:24:41;100077.25;;;4.07;100.00
804;BME280;25687;49.976;8.240;2023-04-20T06:27:09;100073.25;;;4.28;100.00
804;BME280;25687;49.976;8.240;2023-04-20T06:29:35;100071.56;;;4.28;100.00
804;BME280;25687;49.976;8.240;2023-04-20T06:32:00;100071.84;;;4.17;100.00
804;BME280;25687;49.976;8.240;2023-04-20T06:34:25;100066.47;;;4.28;100.00
804;BME280;25687;49.976;8.240;2023-04-20T06:36:57;100074.97;;;4.27;100.00
804;BME280;25687;49.976;8.240;2023-04-20T06:39:22;100066.72;;;4.19;100.00
804;BME280;25687;49.976;8.240;2023-04-20T06:41:48;100067.72;;;4.43;100.00
804;BME280;25687;49.976;8.240;2023-04-20T06:44:13;100069.75;;;4.32;100.00
804;BME280;25687;49.976;8.240;2023-04-20T06:46:38;100066.00;;;4.44;100.00
804;BME280;25687;49.976;8.240;2023-04-20T06:49:03;100068.38;;;4.50;100.00
804;BME280;25687;49.976;8.240;2023-04-20T06:51:30;100069.97;;;4.52;100.00
804;BME280;25687;49.976;8.240;2023-04-20T06:53:56;100076.88;;;4.49;100.00
804;BME280;25687;49.976;8.240;2023-04-20T06:56:22;100080.72;;;4.34;100.00
804;BME280;25687;49.976;8.240;2023-04-20T06:58:47;100071.28;;;4.38;100.00
804;BME280;25687;49.976;8.240;2023-04-20T07:01:12;100070.88;;;4.51;100.00
804;BME280;25687;49.976;8.240;2023-04-20T07:03:38;100071.47;;;4.60;100.00
804;BME280;25687;49.976;8.240;2023-04-20T07:06:04;100067.72;;;4.72;100.00
804;BME280;25687;49.976;8.240;2023-04-20T07:08:31;100063.31;;;4.77;100.00
804;BME280;25687;49.976;8.240;2023-04-20T07:10:56;100074.06;;;4.58;100.00
804;BME280;25687;49.976;8.240;2023-04-20T07:13:21;100072.69;;;4.48;100.00
804;BME280;25687;49.976;8.240;2023-04-20T07:15:46;100067.09;;;4.35;100.00
804;BME280;25687;49.976;8.240;2023-04-20T07:18:12;100069.59;;;4.36;100.00
804;BME280;25687;49.976;8.240;2023-04-20T07:20:37;100067.72;;;4.43;100.00
804;BME280;25687;49.976;8.240;2023-04-20T07:23:02;100065.06;;;4.46;100.00
804;BME280;25687;49.976;8.240;2023-04-20T07:25:28;100064.47;;;4.38;100.00
804;BME280;25687;49.976;8.240;2023-04-20T07:27:55;100066.16;;;4.39;100.00
804;BME280;25687;49.976;8.240;2023-04-20T07:30:21;100057.25;;;4.52;100.00
804;BME280;25687;49.976;8.240;2023-04-20T07:32:46;100060.59;;;4.55;100.00
804;BME280;25687;49.976;8.240;2023-04-20T07:35:11;100058.91;;;4.53;100.00
804;BME280;25687;49.976;8.240;2023-04-20T07:37:36;100058.78;;;4.58;100.00
804;BME280;25687;49.976;8.240;2023-04-20T07:40:02;100058.34;;;4.72;100.00
804;BME280;25687;49.976;8.240;2023-04-20T07:42:31;100063.22;;;4.80;100.00
804;BME280;25687;49.976;8.240;2023-04-20T07:44:57;100066.75;;;4.76;100.00
804;BME280;25687;49.976;8.240;2023-04-20T07:47:22;100071.00;;;4.75;100.00
804;BME280;25687;49.976;8.240;2023-04-20T07:49:47;100065.13;;;4.73;100.00
804;BME280;25687;49.976;8.240;2023-04-20T07:52:13;100079.28;;;4.82;100.00
804;BME280;25687;49.976;8.240;2023-04-20T07:54:38;100068.22;;;4.83;100.00
804;BME280;25687;49.976;8.240;2023-04-20T07:57:04;100067.22;;;4.87;100.00
804;BME280;25687;49.976;8.240;2023-04-20T07:59:29;100070.53;;;4.91;100.00
804;BME280;25687;49.976;8.240;2023-04-20T08:01:58;100068.25;;;5.08;100.00
804;BME280;25687;49.976;8.240;2023-04-20T08:04:25;100065.34;;;5.46;100.00
804;BME280;25687;49.976;8.240;2023-04-20T08:06:50;100075.84;;;5.87;100.00
804;BME280;25687;49.976;8.240;2023-04-20T08:09:15;100070.72;;;5.87;100.00
804;BME280;25687;49.976;8.240;2023-04-20T08:11:41;100063.03;;;6.12;100.00
804;BME280;25687;49.976;8.240;2023-04-20T08:14:06;100056.28;;;6.57;100.00
804;BME280;25687;49.976;8.240;2023-04-20T08:16:32;100062.63;;;6.47;100.00
804;BME280;25687;49.976;8.240;2023-04-20T08:18:57;100059.47;;;6.40;100.00
804;BME280;25687;49.976;8.240;2023-04-20T08:21:22;100056.44;;;6.53;100.00
804;BME280;25687;49.976;8.240;2023-04-20T08:23:48;100049.75;;;6.72;100.00
804;BME280;25687;49.976;8.240;2023-04-20T08:26:16;100046.38;;;7.13;100.00
804;BME280;25687;49.976;8.240;2023-04-20T08:28:41;100044.88;;;7.30;100.00
804;BME280;25687;49.976;8.240;2023-04-20T08:31:09;100048.63;;;7.41;100.00
804;BME280;25687;49.976;8.240;2023-04-20T08:33:34;100050.19;;;7.46;100.00
804;BME280;25687;49.976;8.240;2023-04-20T08:36:00;100047.59;;;7.04;100.00
804;BME280;25687;49.976;8.240;2023-04-20T08:38:25;100047.84;;;6.98;100.00
804;BME280;25687;49.976;8.240;2023-04-20T08:40:50;100047.28;;;6.91;100.00
804;BME280;25687;49.976;8.240;2023-04-20T08:43:15;100052.34;;;7.14;100.00
804;BME280;25687;49.976;8.240;2023-04-20T08:45:43;100046.66;;;7.27;100.00
804;BME280;25687;49.976;8.240;2023-04-20T08:48:09;100037.50;;;7.63;100.00
804;BME280;25687;49.976;8.240;2023-04-20T08:50:35;100042.97;;;7.74;100.00
804;BME280;25687;49.976;8.240;2023-04-20T08:53:03;100047.81;;;7.81;100.00
804;BME280;25687;49.976;8.240;2023-04-20T08:55:28;100048.63;;;7.81;100.00
804;BME280;25687;49.976;8.240;2023-04-20T08:57:53;100033.00;;;7.48;100.00
804;BME280;25687;49.976;8.240;2023-04-20T09:00:19;100032.44;;;7.41;100.00
804;BME280;25687;49.976;8.240;2023-04-20T09:02:55;100031.78;;;7.56;100.00
804;BME280;25687;49.976;8.240;2023-04-20T09:05:28;100025.66;;;7.19;100.00
804;BME280;25687;49.976;8.240;2023-04-20T09:07:55;100030.41;;;7.08;100.00
804;BME280;25687;49.976;8.240;2023-04-20T09:10:21;100033.16;;;7.24;100.00
804;BME280;25687;49.976;8.240;2023-04-20T09:12:48;100031.22;;;7.29;100.00
804;BME280;25687;49.976;8.240;2023-04-20T09:15:24;100021.84;;;7.69;100.00
804;BME280;25687;49.976;8.240;2023-04-20T09:17:50;100015.34;;;7.81;100.00
804;BME280;25687;49.976;8.240;2023-04-20T09:20:15;100021.66;;;8.31;100.00
804;BME280;25687;49.976;8.240;2023-04-20T09:22:40;100021.34;;;8.20;100.00
804;BME280;25687;49.976;8.240;2023-04-20T09:25:13;100018.63;;;8.04;100.00
804;BME280;25687;49.976;8.240;2023-04-20T09:27:39;100023.69;;;8.05;100.00
804;BME280;25687;49.976;8.240;2023-04-20T09:30:04;100018.84;;;7.99;100.00
804;BME280;25687;49.976;8.240;2023-04-20T09:32:30;100013.72;;;7.99;100.00
804;BME280;25687;49.976;8.240;2023-04-20T09:34:57;100011.47;;;8.11;100.00
804;BME280;25687;49.976;8.240;2023-04-20T09:37:22;100007.72;;;7.99;100.00
804;BME280;25687;49.976;8.240;2023-04-20T09:39:48;100011.56;;;8.46;100.00
804;BME280;25687;49.976;8.240;2023-04-20T09:42:15;100007.84;;;8.53;100.00
804;BME280;25687;49.976;8.240;2023-04-20T09:44:41;100005.78;;;8.96;100.00
804;BME280;25687;49.976;8.240;2023-04-20T09:47:07;100013.53;;;9.12;100.00
804;BME280;25687;49.976;8.240;2023-04-20T09:49:33;100004.19;;;8.94;100.00
804;BME280;25687;49.976;8.240;2023-04-20T09:52:02;99994.13;;;9.07;100.00
804;BME280;25687;49.976;8.240;2023-04-20T09:54:28;99992.56;;;9.55;100.00
804;BME280;25687;49.976;8.240;2023-04-20T09:56:53;99984.16;;;9.69;100.00
804;BME280;25687;49.976;8.240;2023-04-20T09:59:20;99992.28;;;10.09;100.00
804;BME280;25687;49.976;8.240;2023-04-20T10:01:46;99991.53;;;9.42;100.00
804;BME280;25687;49.976;8.240;2023-04-20T10:04:11;99981.69;;;9.16;100.00
804;BME280;25687;49.976;8.240;2023-04-20T10:06:39;99968.19;;;8.95;100.00
804;BME280;25687;49.976;8.240;2023-04-20T10:09:06;99971.44;;;8.81;100.00
804;BME280;25687;49.976;8.240;2023-04-20T10:14:13;99958.97;;;9.09;100.00
804;BME280;25687;49.976;8.240;2023-04-20T10:16:40;99955.47;;;9.27;100.00
804;BME280;25687;49.976;8.240;2023-04-20T10:19:06;99955.34;;;9.30;100.00
804;BME280;25687;49.976;8.240;2023-04-20T10:21:31;99941.44;;;9.34;100.00
804;BME280;25687;49.976;8.240;2023-04-20T10:23:58;99940.41;;;10.02;100.00
804;BME280;25687;49.976;8.240;2023-04-20T10:26:40;99938.81;;;10.62;96.62
804;BME280;25687;49.976;8.240;2023-04-20T10:29:05;99932.50;;;11.69;89.13
804;BME280;25687;49.976;8.240;2023-04-20T10:31:38;99936.91;;;13.15;76.41
804;BME280;25687;49.976;8.240;2023-04-20T10:34:05;99938.25;;;12.95;73.64
804;BME280;25687;49.976;8.240;2023-04-20T10:36:33;99934.78;;;12.43;82.08
804;BME280;25687;49.976;8.240;2023-04-20T10:39:00;99925.03;;;11.65;88.63
804;BME280;25687;49.976;8.240;2023-04-20T10:41:37;99926.47;;;10.98;90.81
804;BME280;25687;49.976;8.240;2023-04-20T10:44:07;99931.34;;;11.32;88.73
804;BME280;25687;49.976;8.240;2023-04-20T10:46:32;99917.81;;;10.40;92.13
804;BME280;25687;49.976;8.240;2023-04-20T10:48:59;99912.56;;;10.72;94.47
804;BME280;25687;49.976;8.240;2023-04-20T10:51:25;99911.31;;;11.08;90.18
804;BME280;25687;49.976;8.240;2023-04-20T10:54:01;99902.94;;;10.90;89.45
804;BME280;25687;49.976;8.240;2023-04-20T10:56:36;99894.84;;;11.10;87.59
804;BME280;25687;49.976;8.240;2023-04-20T10:59:05;99896.66;;;11.37;85.98
804;BME280;25687;49.976;8.240;2023-04-20T11:01:31;99890.34;;;11.00;88.08
804;BME280;25687;49.976;8.240;2023-04-20T11:03:57;99877.19;;;10.90;87.63
804;BME280;25687;49.976;8.240;2023-04-20T11:06:22;99882.31;;;10.75;86.06
804;BME280;25687;49.976;8.240;2023-04-20T11:08:47;99878.03;;;10.90;81.40
804;BME280;25687;49.976;8.240;2023-04-20T11:11:20;99871.84;;;11.07;78.89
804;BME280;25687;49.976;8.240;2023-04-20T11:13:46;99866.22;;;11.44;82.41
804;BME280;25687;49.976;8.240;2023-04-20T11:16:12;99857.38;;;11.75;77.28
804;BME280;25687;49.976;8.240;2023-04-20T11:18:47;99858.16;;;11.90;70.99
804;BME280;25687;49.976;8.240;2023-04-20T11:21:13;99847.84;;;11.90;73.25
804;BME280;25687;49.976;8.240;2023-04-20T11:23:39;99848.63;;;11.78;69.27
804;BME280;25687;49.976;8.240;2023-04-20T11:26:05;99853.94;;;11.20;69.85
804;BME280;25687;49.976;8.240;2023-04-20T11:28:31;99839.63;;;11.43;69.92
804;BME280;25687;49.976;8.240;2023-04-20T11:30:58;99846.16;;;11.49;68.81
804;BME280;25687;49.976;8.240;2023-04-20T11:33:25;99839.84;;;11.95;65.65
804;BME280;25687;49.976;8.240;2023-04-20T11:35:55;99836.38;;;11.96;63.02
804;BME280;25687;49.976;8.240;2023-04-20T11:38:31;99836.88;;;11.46;65.86
804;BME280;25687;49.976;8.240;2023-04-20T11:40:57;99837.47;;;11.08;71.75
804;BME280;25687;49.976;8.240;2023-04-20T11:43:28;99850.81;;;11.15;70.38
804;BME280;25687;49.976;8.240;2023-04-20T11:45:53;99836.56;;;11.09;71.40
804;BME280;25687;49.976;8.240;2023-04-20T11:48:19;99841.28;;;10.88;72.83
804;BME280;25687;49.976;8.240;2023-04-20T11:50:44;99829.41;;;10.86;75.76
804;BME280;25687;49.976;8.240;2023-04-20T11:53:10;99823.88;;;10.77;74.39
804;BME280;25687;49.976;8.240;2023-04-20T11:55:39;99816.16;;;10.63;77.40
804;BME280;25687;49.976;8.240;2023-04-20T11:58:04;99815.00;;;10.83;77.17
804;BME280;25687;49.976;8.240;2023-04-20T12:00:30;99815.72;;;10.71;76.47
804;BME280;25687;49.976;8.240;2023-04-20T12:02:56;99817.44;;;10.70;78.39
804;BME280;25687;49.976;8.240;2023-04-20T12:05:21;99817.72;;;10.80;75.11
804;BME280;25687;49.976;8.240;2023-04-20T12:07:47;99827.47;;;11.04;75.69
804;BME280;25687;49.976;8.240;2023-04-20T12:10:12;99810.16;;;11.20;73.17
804;BME280;25687;49.976;8.240;2023-04-20T12:12:37;99821.53;;;11.45;66.93
804;BME280;25687;49.976;8.240;2023-04-20T12:15:03;99806.59;;;11.23;67.19
804;BME280;25687;49.976;8.240;2023-04-20T12:17:28;99811.88;;;11.34;70.64
804;BME280;25687;49.976;8.240;2023-04-20T12:19:54;99798.78;;;11.52;68.33
804;BME280;25687;49.976;8.240;2023-04-20T12:22:19;99806.19;;;11.84;67.30
804;BME280;25687;49.976;8.240;2023-04-20T12:24:44;99806.97;;;11.71;65.68
804;BME280;25687;49.976;8.240;2023-04-20T12:27:09;99814.44;;;11.49;69.24
804;BME280;25687;49.976;8.240;2023-04-20T12:29:35;99793.81;;;11.49;71.44
804;BME280;25687;49.976;8.240;2023-04-20T12:32:00;99791.25;;;11.49;68.60
804;BME280;25687;49.976;8.240;2023-04-20T12:34:25;99789.97;;;11.41;71.54
804;BME280;25687;49.976;8.240;2023-04-20T12:36:51;99794.69;;;11.62;63.33
804;BME280;25687;49.976;8.240;2023-04-20T12:39:16;99789.06;;;11.70;67.93
804;BME280;25687;49.976;8.240;2023-04-20T12:41:41;99797.84;;;11.53;72.28
804;BME280;25687;49.976;8.240;2023-04-20T12:44:06;99786.41;;;11.57;73.20
804;BME280;25687;49.976;8.240;2023-04-20T12:46:32;99792.88;;;11.50;72.21
804;BME280;25687;49.976;8.240;2023-04-20T12:48:57;99796.56;;;11.18;77.66
804;BME280;25687;49.976;8.240;2023-04-20T12:51:22;99792.88;;;11.22;75.09
804;BME280;25687;49.976;8.240;2023-04-20T12:53:48;99790.38;;;11.21;74.28
804;BME280;25687;49.976;8.240;2023-04-20T12:56:13;99777.38;;;11.37;74.15
804;BME280;25687;49.976;8.240;2023-04-20T12:58:39;99809.84;;;11.67;70.27
804;BME280;25687;49.976;8.240;2023-04-20T13:01:05;99788.31;;;11.40;71.28
804;BME280;25687;49.976;8.240;2023-04-20T13:03:30;99788.38;;;11.53;70.59
804;BME280;25687;49.976;8.240;2023-04-20T13:05:55;99792.06;;;11.89;69.08
804;BME280;25687;49.976;8.240;2023-04-20T13:08:21;99785.25;;;12.16;66.70